Time;durP1;ratioP1;P1;durP2;ratioP2;P2;SDS_P1;SDS_P2;PMS_P1;PMS_P2;Temp;Humidity;BMP_temperature;BMP_pressure;BME280_temperature;BME280_humidity;BME280_pressure;Samples;Min_cycle;Max_cycle;Signal;HPM_P1;HPM_P2
2023/01/25 00:00:06;;;;;;;39.97;35.75;;;1.10;99.90;;;;;;5012090;28;20041;-77
2023/01/25 00:02:32;;;;;;;40.80;35.85;;;1.20;99.90;;;;;;5014369;28;20036;-80
2023/01/25 00:04:58;;;;;;;40.53;36.35;;;1.20;99.90;;;;;;5013602;28;20117;-78
2023/01/25 00:07:24;;;;;;;43.58;36.60;;;1.20;99.90;;;;;;5014164;28;20117;-77
2023/01/25 00:09:49;;;;;;;39.47;35.42;;;1.20;99.90;;;;;;5012836;28;20078;-78
2023/01/25 00:12:15;;;;;;;37.75;33.83;;;1.20;99.90;;;;;;5013718;28;20053;-77
2023/01/25 00:14:41;;;;;;;43.08;36.45;;;1.20;99.90;;;;;;4997265;28;20033;-79
2023/01/25 00:17:08;;;;;;;41.72;34.80;;;1.10;99.90;;;;;;5012701;28;20057;-77
2023/01/25 00:19:33;;;;;;;39.67;35.65;;;1.10;99.90;;;;;;5012414;28;20060;-77
2023/01/25 00:21:59;;;;;;;40.05;35.55;;;1.00;99.90;;;;;;5012068;28;20034;-77
2023/01/25 00:24:25;;;;;;;40.58;35.30;;;1.00;99.90;;;;;;5010286;28;20035;-78
2023/01/25 00:26:51;;;;;;;39.38;34.08;;;1.00;99.90;;;;;;4997105;28;20034;-79
2023/01/25 00:29:17;;;;;;;41.08;36.60;;;1.00;99.90;;;;;;5013488;28;20041;-78
2023/01/25 00:32:05;;;;;;;39.80;35.67;;;1.10;99.90;;;;;;5013602;28;20029;-79
2023/01/25 00:34:47;;;;;;;39.75;34.47;;;1.20;99.90;;;;;;5011941;28;20029;-77
2023/01/25 00:37:45;;;;;;;42.63;36.35;;;1.10;99.90;;;;;;5013782;28;20022;-78
2023/01/25 00:40:12;;;;;;;43.30;36.38;;;1.00;99.90;;;;;;5011947;28;20069;-79
2023/01/25 00:42:38;;;;;;;42.50;36.60;;;1.00;99.90;;;;;;5012937;28;20062;-77
2023/01/25 00:45:04;;;;;;;43.75;39.15;;;1.00;99.90;;;;;;5011261;28;20045;-77
2023/01/25 00:47:30;;;;;;;41.58;36.90;;;1.10;99.90;;;;;;5013071;28;20049;-79
2023/01/25 00:49:56;;;;;;;41.72;37.35;;;1.10;99.90;;;;;;5011798;28;20027;-79
2023/01/25 00:52:22;;;;;;;43.95;38.72;;;1.00;99.90;;;;;;5011779;28;20469;-79
2023/01/25 00:54:48;;;;;;;43.67;37.97;;;1.10;99.90;;;;;;4995901;28;20030;-78
2023/01/25 00:57:14;;;;;;;42.78;37.03;;;1.10;99.90;;;;;;5012979;28;20498;-79
2023/01/25 00:59:43;;;;;;;42.60;36.58;;;1.10;99.90;;;;;;5010749;28;20053;-79
2023/01/25 01:02:10;;;;;;;41.58;36.42;;;1.10;99.90;;;;;;5011915;28;20037;-79
2023/01/25 01:04:36;;;;;;;40.85;35.58;;;1.10;99.90;;;;;;4994513;28;20033;-78
2023/01/25 01:07:02;;;;;;;42.55;37.78;;;1.00;99.90;;;;;;5010907;28;20034;-77
2023/01/25 01:09:28;;;;;;;39.95;35.60;;;1.10;99.90;;;;;;5027067;28;20050;-77
2023/01/25 01:11:54;;;;;;;42.47;37.42;;;1.00;99.90;;;;;;5025887;28;20041;-78
2023/01/25 01:14:21;;;;;;;39.08;35.00;;;1.00;99.90;;;;;;5010074;28;20030;-78
2023/01/25 01:16:47;;;;;;;40.38;35.85;;;1.00;99.90;;;;;;5010393;28;20034;-77
2023/01/25 01:19:13;;;;;;;40.15;34.58;;;0.90;99.90;;;;;;5027124;28;20038;-77
2023/01/25 01:21:39;;;;;;;39.47;33.65;;;0.90;99.90;;;;;;5025844;28;20054;-77
2023/01/25 01:24:05;;;;;;;35.13;31.30;;;1.00;99.90;;;;;;5009917;28;20053;-77
2023/01/25 01:26:31;;;;;;;38.67;34.75;;;1.00;99.90;;;;;;5026639;28;20038;-80
2023/01/25 01:28:57;;;;;;;43.38;36.95;;;0.90;99.90;;;;;;5009543;28;20037;-77
2023/01/25 01:31:23;;;;;;;41.67;34.45;;;0.90;99.90;;;;;;5010199;28;20027;-77
2023/01/25 01:33:59;;;;;;;45.05;36.53;;;0.80;99.90;;;;;;5009167;28;20022;-79
2023/01/25 01:36:28;;;;;;;41.10;32.83;;;0.80;99.90;;;;;;5010261;28;20037;-77
2023/01/25 01:38:54;;;;;;;42.47;35.35;;;0.80;99.90;;;;;;5009657;28;20118;-77
2023/01/25 01:41:21;;;;;;;41.90;35.60;;;0.80;99.90;;;;;;5010784;28;20038;-77
2023/01/25 01:43:47;;;;;;;38.85;32.80;;;0.80;99.90;;;;;;5008978;28;20069;-79
2023/01/25 01:46:33;;;;;;;40.08;35.15;;;0.80;99.90;;;;;;4994106;28;20037;-77
2023/01/25 01:49:24;;;;;;;36.53;32.60;;;0.80;99.90;;;;;;5009739;28;20121;-77
2023/01/25 01:52:00;;;;;;;39.88;35.55;;;0.70;99.90;;;;;;5009825;28;20027;-80
2023/01/25 01:54:58;;;;;;;36.50;32.70;;;0.80;99.90;;;;;;5009697;28;20026;-77
2023/01/25 01:57:33;;;;;;;38.92;34.50;;;0.80;99.90;;;;;;5009473;28;20042;-79
2023/01/25 02:00:18;;;;;;;41.92;36.85;;;0.90;99.90;;;;;;4992480;28;20053;-77
2023/01/25 02:02:47;;;;;;;39.35;34.45;;;0.90;99.90;;;;;;5007678;28;20038;-77
2023/01/25 02:05:39;;;;;;;38.15;32.75;;;0.90;99.90;;;;;;5008131;28;20034;-79
2023/01/25 02:08:08;;;;;;;41.83;34.67;;;0.80;99.90;;;;;;4991966;28;20026;-76
2023/01/25 02:10:35;;;;;;;37.08;33.33;;;0.70;99.90;;;;;;5008381;28;20037;-78
2023/01/25 02:13:02;;;;;;;40.65;34.38;;;0.70;99.90;;;;;;4991620;28;20057;-78
2023/01/25 02:15:46;;;;;;;44.95;37.67;;;0.70;99.90;;;;;;5008055;28;20031;-79
2023/01/25 02:18:12;;;;;;;44.60;38.22;;;0.80;99.90;;;;;;5008039;28;20109;-79
2023/01/25 02:20:42;;;;;;;40.05;34.95;;;0.80;99.90;;;;;;5007579;28;20066;-78
2023/01/25 02:23:26;;;;;;;57.10;38.13;;;0.80;99.90;;;;;;5007441;28;20027;-79
2023/01/25 02:25:54;;;;;;;40.67;34.60;;;0.70;99.90;;;;;;5024153;28;20030;-79
2023/01/25 02:28:24;;;;;;;41.63;37.20;;;0.60;99.90;;;;;;4991167;28;20030;-79
2023/01/25 02:30:50;;;;;;;41.63;37.35;;;0.60;99.90;;;;;;5007473;28;20029;-78
2023/01/25 02:33:16;;;;;;;43.20;38.65;;;0.60;99.90;;;;;;4991459;28;20027;-78
2023/01/25 02:35:55;;;;;;;47.72;42.55;;;0.70;99.90;;;;;;5007785;28;20050;-77
2023/01/25 02:38:21;;;;;;;46.83;41.58;;;0.70;99.90;;;;;;5007727;28;20050;-78
2023/01/25 02:40:56;;;;;;;48.38;39.15;;;0.70;99.90;;;;;;4992388;28;20027;-76
2023/01/25 02:43:23;;;;;;;41.17;36.03;;;0.70;99.90;;;;;;5007999;28;20034;-80
2023/01/25 02:45:54;;;;;;;44.80;40.08;;;0.70;99.90;;;;;;5007191;28;20025;-79
2023/01/25 02:48:19;;;;;;;40.35;36.13;;;0.70;99.90;;;;;;5016388;28;20041;-79
2023/01/25 02:50:45;;;;;;;43.42;37.03;;;0.70;99.90;;;;;;4991668;28;20109;-77
2023/01/25 02:53:11;;;;;;;44.25;39.25;;;0.70;99.90;;;;;;5008563;28;20076;-79
2023/01/25 02:55:37;;;;;;;45.88;38.95;;;0.60;99.90;;;;;;5007838;28;20050;-80
2023/01/25 02:58:02;;;;;;;44.90;37.83;;;0.70;99.90;;;;;;4991526;28;20456;-79
2023/01/25 03:00:28;;;;;;;44.28;37.72;;;0.70;99.90;;;;;;5007529;28;20457;-77
2023/01/25 03:02:54;;;;;;;42.00;37.58;;;0.70;99.90;;;;;;4991417;28;20093;-79
2023/01/25 03:05:20;;;;;;;41.88;37.38;;;0.80;99.90;;;;;;5007616;28;20034;-79
2023/01/25 03:07:46;;;;;;;52.20;37.65;;;0.70;99.90;;;;;;5007529;28;20041;-78
2023/01/25 03:10:12;;;;;;;45.03;36.05;;;0.80;99.90;;;;;;5006911;28;20456;-79
2023/01/25 03:12:38;;;;;;;51.33;40.63;;;0.90;99.90;;;;;;5007742;28;20034;-79
2023/01/25 03:15:04;;;;;;;52.28;42.17;;;0.80;99.90;;;;;;5007799;28;20031;-78
2023/01/25 03:17:30;;;;;;;52.58;42.50;;;0.80;99.90;;;;;;5007229;28;20035;-78
2023/01/25 03:19:56;;;;;;;56.22;48.97;;;0.80;99.90;;;;;;5008694;28;20450;-79
2023/01/25 03:22:22;;;;;;;50.92;43.47;;;0.80;99.90;;;;;;5024389;28;20041;-79
2023/01/25 03:24:49;;;;;;;50.67;44.70;;;0.70;99.90;;;;;;5008033;28;20037;-79
2023/01/25 03:27:17;;;;;;;47.13;41.42;;;0.70;99.90;;;;;;5024137;28;20041;-78
2023/01/25 03:29:47;;;;;;;51.63;40.78;;;0.70;99.90;;;;;;5007349;28;20034;-78
2023/01/25 03:32:18;;;;;;;45.67;39.38;;;0.60;99.90;;;;;;5006887;28;20034;-78
2023/01/25 03:34:44;;;;;;;51.42;41.60;;;0.70;99.90;;;;;;5006880;28;20027;-78
2023/01/25 03:37:09;;;;;;;50.00;43.70;;;0.80;99.90;;;;;;5007263;28;20306;-78
2023/01/25 03:39:37;;;;;;;47.92;38.83;;;0.80;99.90;;;;;;4990781;28;20416;-79
2023/01/25 03:42:03;;;;;;;47.00;40.47;;;0.80;99.90;;;;;;4991432;28;20030;-79
2023/01/25 03:44:30;;;;;;;47.22;38.53;;;0.80;99.90;;;;;;4991244;28;20049;-78
2023/01/25 03:46:57;;;;;;;49.08;38.60;;;0.70;99.90;;;;;;5007142;28;20035;-79
2023/01/25 03:49:23;;;;;;;57.17;41.55;;;0.70;99.90;;;;;;5007455;28;20034;-79
2023/01/25 03:51:50;;;;;;;42.83;38.20;;;0.80;99.90;;;;;;5022098;28;20113;-79
2023/01/25 03:54:17;;;;;;;43.10;35.30;;;0.70;99.90;;;;;;4975363;28;20126;-78
2023/01/25 03:56:43;;;;;;;41.63;37.20;;;0.70;99.90;;;;;;5007698;28;20026;-79
2023/01/25 03:59:20;;;;;;;45.83;39.80;;;0.80;99.90;;;;;;5007429;28;20118;-79
2023/01/25 04:01:46;;;;;;;51.92;42.10;;;0.90;99.90;;;;;;4987553;28;20060;-78
2023/01/25 04:04:12;;;;;;;50.78;41.30;;;0.70;99.90;;;;;;4990238;28;20090;-78
2023/01/25 04:06:40;;;;;;;44.80;39.95;;;0.70;99.90;;;;;;4989073;28;20034;-78
2023/01/25 04:09:06;;;;;;;50.13;42.80;;;0.70;99.90;;;;;;4972690;28;20117;-79
2023/01/25 04:11:37;;;;;;;49.17;42.60;;;0.70;99.90;;;;;;4988699;28;20019;-79
2023/01/25 04:14:04;;;;;;;51.83;44.78;;;0.70;99.90;;;;;;5006365;28;20037;-78
2023/01/25 04:16:38;;;;;;;49.67;40.33;;;0.60;99.90;;;;;;5008597;28;20035;-78
2023/01/25 04:19:30;;;;;;;51.58;43.25;;;0.50;99.90;;;;;;5007100;28;20039;-78
2023/01/25 04:21:59;;;;;;;49.15;42.40;;;0.60;99.90;;;;;;4990986;28;20030;-78
2023/01/25 04:24:30;;;;;;;50.03;44.42;;;0.50;99.90;;;;;;5003868;28;20092;-79
2023/01/25 04:26:56;;;;;;;49.30;41.22;;;0.50;99.90;;;;;;5005208;28;20054;-78
2023/01/25 04:29:22;;;;;;;48.08;42.85;;;0.60;99.90;;;;;;5004392;28;20034;-80
2023/01/25 04:31:48;;;;;;;48.80;42.20;;;0.60;99.90;;;;;;5007361;28;20022;-78
2023/01/25 04:34:14;;;;;;;44.47;39.65;;;0.60;99.90;;;;;;5008399;28;20033;-79
2023/01/25 04:36:40;;;;;;;48.42;40.53;;;0.60;99.90;;;;;;5007978;28;20042;-79
2023/01/25 04:39:07;;;;;;;45.92;39.95;;;0.60;99.90;;;;;;5008079;28;20042;-79
2023/01/25 04:41:35;;;;;;;44.70;39.90;;;0.70;99.90;;;;;;5007459;28;20026;-78
2023/01/25 04:44:01;;;;;;;46.42;41.25;;;0.60;99.90;;;;;;5007827;28;20022;-78
2023/01/25 04:46:26;;;;;;;44.90;39.38;;;0.60;99.90;;;;;;5010780;28;20038;-79
2023/01/25 04:48:53;;;;;;;56.85;46.33;;;0.60;99.90;;;;;;4997098;28;20057;-79
2023/01/25 04:51:20;;;;;;;48.88;42.95;;;0.50;99.90;;;;;;5011327;28;20042;-78
2023/01/25 04:53:46;;;;;;;48.05;41.55;;;0.50;99.90;;;;;;4994641;28;20031;-78
2023/01/25 04:56:12;;;;;;;46.58;41.65;;;0.60;99.90;;;;;;5011005;28;20037;-78
2023/01/25 04:58:52;;;;;;;53.40;41.17;;;0.60;99.90;;;;;;5011396;28;20040;-78
2023/01/25 05:01:18;;;;;;;50.72;40.22;;;0.70;99.90;;;;;;5011777;28;20054;-78
2023/01/25 05:03:44;;;;;;;47.28;40.15;;;0.70;99.90;;;;;;5028473;28;20060;-78
2023/01/25 05:06:27;;;;;;;59.60;43.22;;;0.70;99.90;;;;;;5012071;28;20129;-79
2023/01/25 05:08:53;;;;;;;54.35;48.53;;;0.60;99.90;;;;;;5012980;28;20042;-78
2023/01/25 05:11:19;;;;;;;58.88;44.03;;;0.60;99.90;;;;;;5028166;28;20018;-78
2023/01/25 05:14:01;;;;;;;50.92;42.90;;;0.50;99.90;;;;;;5011911;28;20030;-78
2023/01/25 05:16:30;;;;;;;59.67;48.97;;;0.50;99.90;;;;;;5012329;28;20054;-79
2023/01/25 05:18:57;;;;;;;53.65;47.95;;;0.50;99.90;;;;;;5012740;28;20037;-79
2023/01/25 05:24:16;;;;;;;51.20;43.60;;;0.40;99.90;;;;;;4999016;28;20049;-78
2023/01/25 05:27:02;;;;;;;55.33;49.42;;;0.30;99.90;;;;;;4995337;28;20022;-78
2023/01/25 05:29:40;;;;;;;58.05;45.88;;;0.20;99.90;;;;;;5011183;28;20034;-78
2023/01/25 05:32:10;;;;;;;59.92;49.13;;;0.30;99.90;;;;;;5011538;28;20022;-78
2023/01/25 05:34:37;;;;;;;57.65;50.47;;;0.40;99.90;;;;;;5007508;28;20023;-78
2023/01/25 05:37:07;;;;;;;59.13;51.38;;;0.30;99.90;;;;;;5008211;28;20161;-78
2023/01/25 05:39:36;;;;;;;54.85;48.30;;;0.20;99.90;;;;;;5014815;28;20081;-77
2023/01/25 05:42:02;;;;;;;65.68;54.17;;;0.30;99.90;;;;;;4983259;28;20031;-78
2023/01/25 05:44:28;;;;;;;57.30;48.60;;;0.30;99.90;;;;;;5010418;28;20026;-79
2023/01/25 05:46:54;;;;;;;59.33;48.78;;;0.30;99.90;;;;;;4994118;28;20083;-78
2023/01/25 05:49:21;;;;;;;54.03;47.17;;;0.30;99.90;;;;;;4976790;28;20502;-79
2023/01/25 05:51:47;;;;;;;60.05;50.13;;;0.40;99.90;;;;;;4995858;28;20094;-77
2023/01/25 05:54:18;;;;;;;66.13;53.78;;;0.40;99.90;;;;;;4994217;28;20088;-77
2023/01/25 05:56:50;;;;;;;59.97;47.45;;;0.30;99.90;;;;;;5009355;28;20037;-77
2023/01/25 05:59:17;;;;;;;65.07;50.17;;;0.20;99.90;;;;;;5009228;28;20038;-78
2023/01/25 06:01:43;;;;;;;62.72;52.40;;;0.30;99.90;;;;;;4992386;28;20041;-77
2023/01/25 06:04:14;;;;;;;69.70;53.35;;;0.30;99.90;;;;;;5008755;28;20462;-77
2023/01/25 06:06:40;;;;;;;61.10;54.25;;;0.30;99.90;;;;;;4997938;28;20034;-77
2023/01/25 06:09:06;;;;;;;65.93;52.90;;;0.30;99.90;;;;;;4991820;28;20027;-77
2023/01/25 06:11:32;;;;;;;67.28;53.60;;;0.30;99.90;;;;;;5007698;28;20038;-77
2023/01/25 06:13:58;;;;;;;61.47;51.17;;;0.30;99.90;;;;;;5007986;28;20023;-76
2023/01/25 06:16:24;;;;;;;67.00;55.83;;;0.30;99.90;;;;;;5007324;28;20062;-76
2023/01/25 06:19:12;;;;;;;64.22;52.17;;;0.20;99.90;;;;;;4994949;28;20036;-77
2023/01/25 06:21:58;;;;;;;63.65;50.78;;;0.30;99.90;;;;;;5010635;28;20069;-78
2023/01/25 06:24:24;;;;;;;61.58;52.33;;;0.30;99.90;;;;;;4994977;28;20026;-76
2023/01/25 06:26:50;;;;;;;65.75;54.33;;;0.30;99.90;;;;;;5009619;28;20038;-77
2023/01/25 06:29:15;;;;;;;60.58;50.65;;;0.30;99.90;;;;;;5001947;28;20050;-77
2023/01/25 06:31:41;;;;;;;65.43;47.25;;;0.20;99.90;;;;;;5009811;28;20030;-77
2023/01/25 06:34:08;;;;;;;66.15;50.38;;;0.20;99.90;;;;;;5008126;28;20026;-77
2023/01/25 06:36:34;;;;;;;64.18;53.83;;;0.20;99.90;;;;;;4978853;28;20065;-77
2023/01/25 06:39:00;;;;;;;67.40;54.00;;;0.30;99.90;;;;;;5009140;28;20061;-79
2023/01/25 06:41:26;;;;;;;71.43;53.72;;;0.20;99.90;;;;;;5008323;28;20026;-79
2023/01/25 06:43:52;;;;;;;66.50;55.53;;;0.10;99.90;;;;;;5007547;28;20039;-78
2023/01/25 06:46:19;;;;;;;68.82;53.67;;;0.10;99.90;;;;;;5008120;28;20034;-77
2023/01/25 06:48:44;;;;;;;67.00;54.80;;;0.10;99.90;;;;;;5009710;28;20034;-79
2023/01/25 06:51:12;;;;;;;65.32;53.88;;;0.00;99.90;;;;;;4987106;28;20042;-76
2023/01/25 06:53:41;;;;;;;70.90;58.65;;;0.00;99.90;;;;;;5008629;28;20397;-79
2023/01/25 06:56:19;;;;;;;67.18;55.97;;;0.10;99.90;;;;;;4992637;28;20022;-77
2023/01/25 06:58:46;;;;;;;67.85;55.92;;;0.10;99.90;;;;;;5010298;28;20259;-77
2023/01/25 07:01:18;;;;;;;69.53;54.95;;;0.00;99.90;;;;;;5009294;28;20034;-76
2023/01/25 07:03:51;;;;;;;74.97;60.15;;;0.00;99.90;;;;;;5009092;28;20032;-79
2023/01/25 07:06:17;;;;;;;69.05;57.88;;;0.10;99.90;;;;;;5010221;28;20154;-77
2023/01/25 07:08:43;;;;;;;62.92;53.30;;;0.10;99.90;;;;;;5008750;28;20031;-76
2023/01/25 07:11:12;;;;;;;71.88;57.80;;;0.10;99.90;;;;;;5009879;28;20094;-77
2023/01/25 07:13:44;;;;;;;74.82;57.83;;;0.00;99.90;;;;;;5008316;28;20093;-77
2023/01/25 07:16:12;;;;;;;68.05;57.65;;;0.00;99.90;;;;;;5008151;28;20090;-79
2023/01/25 07:18:39;;;;;;;70.35;59.55;;;-0.10;99.90;;;;;;5009329;28;20469;-77
2023/01/25 07:21:09;;;;;;;66.50;57.55;;;0.00;99.90;;;;;;5009780;28;20038;-79
2023/01/25 07:23:36;;;;;;;68.15;54.10;;;0.00;99.90;;;;;;5005932;28;20034;-78
2023/01/25 07:26:04;;;;;;;72.70;61.00;;;0.00;99.90;;;;;;4995647;28;20049;-77
2023/01/25 07:28:30;;;;;;;69.38;57.72;;;0.10;99.90;;;;;;5004027;28;20039;-77
2023/01/25 07:31:02;;;;;;;62.35;53.00;;;0.20;99.90;;;;;;5005109;28;20018;-77
2023/01/25 07:33:28;;;;;;;72.60;52.92;;;0.10;99.90;;;;;;5007801;28;20072;-78
2023/01/25 07:36:02;;;;;;;74.07;59.83;;;0.00;99.90;;;;;;5007440;28;20390;-78
2023/01/25 07:38:28;;;;;;;64.38;54.83;;;0.00;99.90;;;;;;5008180;28;20046;-77
2023/01/25 07:40:54;;;;;;;69.85;56.70;;;0.00;99.90;;;;;;5009115;28;20038;-78
2023/01/25 07:43:20;;;;;;;66.85;57.35;;;0.00;99.90;;;;;;5009845;28;20385;-78
2023/01/25 07:45:48;;;;;;;73.53;58.65;;;-0.10;99.90;;;;;;4994372;28;20041;-78
2023/01/25 07:48:16;;;;;;;69.50;56.28;;;0.10;99.90;;;;;;4992453;28;20470;-78
2023/01/25 07:50:45;;;;;;;68.30;56.45;;;0.10;99.90;;;;;;5008832;28;20026;-78
2023/01/25 07:53:12;;;;;;;72.95;57.05;;;0.10;99.90;;;;;;5009308;28;20034;-78
2023/01/25 07:55:38;;;;;;;72.75;57.15;;;0.20;99.90;;;;;;5007500;28;20031;-78
2023/01/25 07:58:04;;;;;;;74.18;55.58;;;0.20;99.90;;;;;;4996024;28;20035;-78
2023/01/25 08:00:30;;;;;;;71.18;56.10;;;0.20;99.90;;;;;;5004771;28;20517;-77
2023/01/25 08:02:56;;;;;;;68.82;54.97;;;0.20;99.90;;;;;;5004772;28;20026;-77
2023/01/25 08:05:22;;;;;;;67.68;56.80;;;0.20;99.90;;;;;;5006286;28;20056;-77
2023/01/25 08:07:47;;;;;;;61.45;53.92;;;0.20;99.90;;;;;;5006090;28;20034;-77
2023/01/25 08:10:14;;;;;;;77.75;57.92;;;0.20;99.90;;;;;;5004750;28;20038;-78
2023/01/25 08:12:45;;;;;;;69.80;55.95;;;0.10;99.90;;;;;;5005376;28;20031;-78
2023/01/25 08:15:11;;;;;;;66.95;53.67;;;0.10;99.90;;;;;;5005996;28;20034;-78
2023/01/25 08:17:38;;;;;;;74.35;61.03;;;0.20;99.90;;;;;;5005782;28;20041;-77
2023/01/25 08:20:05;;;;;;;69.60;59.92;;;0.10;99.90;;;;;;4988549;28;20034;-77
2023/01/25 08:22:30;;;;;;;66.07;54.20;;;0.20;99.90;;;;;;5008623;28;20069;-77
2023/01/25 08:24:56;;;;;;;71.50;57.10;;;0.10;99.90;;;;;;5008626;28;20034;-77
2023/01/25 08:27:22;;;;;;;74.80;57.83;;;0.10;99.90;;;;;;5009584;28;20030;-78
2023/01/25 08:29:52;;;;;;;74.03;56.50;;;0.20;99.90;;;;;;5009404;28;20094;-77
2023/01/25 08:32:18;;;;;;;;;;;0.10;99.90;;;;;;5010146;28;20098;-77
2023/01/25 08:34:44;;;;;;;74.60;56.08;;;0.20;99.90;;;;;;5008407;28;19929;-78
2023/01/25 08:37:10;;;;;;;70.82;57.88;;;0.10;99.90;;;;;;5008615;28;20057;-78
2023/01/25 08:39:36;;;;;;;72.22;58.20;;;0.10;99.90;;;;;;5008121;28;20046;-77
2023/01/25 08:42:02;;;;;;;79.85;61.67;;;0.80;99.90;;;;;;5008441;28;20034;-78
2023/01/25 08:44:28;;;;;;;74.95;58.83;;;0.20;99.90;;;;;;5009442;28;20121;-77
2023/01/25 08:46:54;;;;;;;73.75;58.92;;;0.20;99.90;;;;;;5007274;28;20130;-77
2023/01/25 08:49:20;;;;;;;70.80;56.53;;;0.10;99.90;;;;;;5014485;28;20038;-79
2023/01/25 08:51:47;;;;;;;70.18;55.50;;;0.20;99.90;;;;;;5009181;28;20054;-77
2023/01/25 08:54:12;;;;;;;73.15;57.30;;;0.10;99.90;;;;;;5008251;28;20026;-77
2023/01/25 08:56:40;;;;;;;69.63;58.00;;;0.20;99.90;;;;;;4991892;28;20026;-77
2023/01/25 08:59:06;;;;;;;70.57;59.97;;;0.20;99.90;;;;;;4991831;28;20037;-77
2023/01/25 09:01:32;;;;;;;74.13;60.13;;;0.20;99.90;;;;;;5009250;28;20045;-77
2023/01/25 09:03:58;;;;;;;75.93;58.97;;;0.10;99.90;;;;;;5009009;28;20026;-78
2023/01/25 09:06:24;;;;;;;76.68;61.20;;;0.00;99.90;;;;;;4974374;28;20037;-77
2023/01/25 09:08:50;;;;;;;68.47;57.55;;;-0.10;99.90;;;;;;5007124;28;20038;-78
2023/01/25 09:11:21;;;;;;;67.45;57.10;;;0.10;99.90;;;;;;5008140;28;20049;-77
2023/01/25 09:13:47;;;;;;;75.93;58.58;;;0.10;99.90;;;;;;5024113;28;20090;-77
2023/01/25 09:16:16;;;;;;;72.32;59.70;;;0.20;99.90;;;;;;5009105;28;20526;-77
2023/01/25 09:18:44;;;;;;;74.00;57.10;;;0.20;99.90;;;;;;5009001;28;20038;-77
2023/01/25 09:21:12;;;;;;;74.75;56.22;;;0.20;99.90;;;;;;5024169;28;20043;-77
2023/01/25 09:23:38;;;;;;;67.32;56.10;;;0.30;99.90;;;;;;5006971;28;20046;-77
2023/01/25 09:26:05;;;;;;;64.28;52.35;;;0.30;99.90;;;;;;5008674;28;20069;-77
2023/01/25 09:28:32;;;;;;;64.63;55.65;;;0.40;99.90;;;;;;5007015;28;20034;-77
2023/01/25 09:31:04;;;;;;;64.68;51.88;;;0.40;99.90;;;;;;5007812;28;20034;-77
2023/01/25 09:33:59;;;;;;;66.25;52.63;;;0.50;99.90;;;;;;5015652;28;20060;-77
2023/01/25 09:36:26;;;;;;;73.10;59.92;;;0.50;99.90;;;;;;5008606;28;20022;-77
2023/01/25 09:38:52;;;;;;;64.53;54.03;;;0.50;99.90;;;;;;5007336;28;20134;-77
2023/01/25 09:41:27;;;;;;;79.15;58.58;;;0.60;99.90;;;;;;5007824;28;20072;-77
2023/01/25 09:44:02;;;;;;;65.80;55.33;;;0.50;99.90;;;;;;5006270;28;20049;-77
2023/01/25 09:46:41;;;;;;;62.45;54.53;;;0.60;99.90;;;;;;4996407;28;20031;-77
2023/01/25 09:49:35;;;;;;;73.28;54.95;;;0.50;99.90;;;;;;5007826;28;20041;-78
2023/01/25 09:52:20;;;;;;;67.78;52.42;;;0.60;99.90;;;;;;5008115;28;20033;-78
2023/01/25 09:54:47;;;;;;;60.58;50.33;;;0.70;99.90;;;;;;5008126;28;20035;-77
2023/01/25 09:57:32;;;;;;;64.60;47.55;;;0.60;99.90;;;;;;4974658;28;20035;-77
2023/01/25 10:00:00;;;;;;;69.72;55.33;;;0.70;99.90;;;;;;5007074;28;20038;-77
2023/01/25 10:02:33;;;;;;;59.85;51.13;;;0.70;99.90;;;;;;4990444;28;20094;-78
2023/01/25 10:05:17;;;;;;;62.63;49.90;;;0.70;99.90;;;;;;5007627;28;20084;-78
2023/01/25 10:07:54;;;;;;;64.68;52.47;;;0.70;99.90;;;;;;5005452;28;20033;-78
2023/01/25 10:10:31;;;;;;;58.42;49.17;;;0.70;99.90;;;;;;5007298;28;20031;-78
2023/01/25 10:12:56;;;;;;;66.00;54.28;;;0.60;99.90;;;;;;5007881;28;20034;-78
2023/01/25 10:15:33;;;;;;;72.03;51.35;;;0.60;99.90;;;;;;5006625;28;20040;-78
2023/01/25 10:18:03;;;;;;;67.65;55.58;;;0.70;99.90;;;;;;5007786;28;20446;-78
2023/01/25 10:20:31;;;;;;;62.85;51.53;;;0.80;99.90;;;;;;5007432;28;20036;-78
2023/01/25 10:23:19;;;;;;;67.13;52.75;;;0.70;99.90;;;;;;5006728;28;20031;-78
2023/01/25 10:25:53;;;;;;;66.57;53.92;;;0.80;99.90;;;;;;5007756;28;20037;-78
2023/01/25 10:28:27;;;;;;;59.58;50.85;;;0.60;99.90;;;;;;5007582;28;20038;-78
2023/01/25 10:31:10;;;;;;;62.67;53.88;;;0.30;99.90;;;;;;5006162;28;20038;-78
2023/01/25 10:33:41;;;;;;;62.65;50.90;;;0.30;99.90;;;;;;5007600;28;20094;-78
2023/01/25 10:36:13;;;;;;;60.88;50.40;;;0.40;99.90;;;;;;5006241;28;20144;-77
2023/01/25 10:38:45;;;;;;;60.00;51.17;;;0.50;99.90;;;;;;5006170;28;20063;-78
2023/01/25 10:41:25;;;;;;;70.03;53.47;;;0.60;99.90;;;;;;5006179;28;20057;-77
2023/01/25 10:44:20;;;;;;;64.97;49.20;;;0.70;99.90;;;;;;5007289;28;20033;-78
2023/01/25 10:46:40;;;;;;;68.22;54.53;;;0.70;99.90;;;;;;5007273;28;20034;-78
2023/01/25 10:49:19;;;;;;;77.40;61.42;;;0.70;99.90;;;;;;5007150;28;20037;-78
2023/01/25 10:51:45;;;;;;;67.15;55.17;;;0.70;99.90;;;;;;5006121;28;20114;-78
2023/01/25 10:54:14;;;;;;;83.60;63.95;;;0.80;99.90;;;;;;5007189;28;20114;-78
2023/01/25 10:56:44;;;;;;;49.13;35.45;;;0.70;99.90;;;;;;5022234;28;20034;-78
2023/01/25 10:59:15;;;;;;;59.97;51.33;;;0.60;99.90;;;;;;5006036;28;20235;-77
2023/01/25 11:01:42;;;;;;;66.10;50.80;;;0.80;99.90;;;;;;5003717;28;20029;-78
2023/01/25 11:04:34;;;;;;;69.78;50.17;;;0.80;99.90;;;;;;4983262;28;20029;-78
2023/01/25 11:07:04;;;;;;;56.80;46.75;;;1.00;99.90;;;;;;5006207;28;20392;-78
2023/01/25 11:09:33;;;;;;;66.43;49.40;;;0.90;99.90;;;;;;5005341;28;20078;-78
2023/01/25 11:12:01;;;;;;;60.47;48.60;;;1.00;99.90;;;;;;5006786;28;20030;-78
2023/01/25 11:14:30;;;;;;;60.67;50.80;;;1.30;99.90;;;;;;5006835;28;20026;-78
2023/01/25 11:16:58;;;;;;;57.78;49.97;;;1.10;99.90;;;;;;5005038;28;20078;-77
2023/01/25 11:19:37;;;;;;;63.15;50.45;;;1.10;99.90;;;;;;5005812;28;20125;-78
2023/01/25 11:22:20;;;;;;;62.72;48.45;;;0.90;99.90;;;;;;5005409;28;20038;-79
2023/01/25 11:24:46;;;;;;;65.15;51.15;;;1.00;99.90;;;;;;5005380;28;20037;-78
2023/01/25 11:27:20;;;;;;;61.95;49.22;;;1.00;99.90;;;;;;4991313;28;20138;-78
2023/01/25 11:30:23;;;;;;;64.63;49.53;;;0.80;99.90;;;;;;5005454;28;20101;-78
2023/01/25 11:32:50;;;;;;;62.60;52.28;;;0.90;99.90;;;;;;5006645;28;20027;-78
2023/01/25 11:35:28;;;;;;;69.63;53.95;;;1.00;99.90;;;;;;5006587;28;20109;-78
2023/01/25 11:38:16;;;;;;;62.17;49.55;;;0.80;99.90;;;;;;5006560;28;20026;-79
2023/01/25 11:41:02;;;;;;;63.25;52.70;;;0.90;99.90;;;;;;5005916;28;20041;-78
2023/01/25 11:44:16;;;;;;;62.47;53.60;;;0.90;99.90;;;;;;5005560;28;20068;-78
2023/01/25 11:46:50;;;;;;;61.35;51.75;;;1.00;99.90;;;;;;5005929;28;20026;-78
2023/01/25 11:49:41;;;;;;;55.40;47.95;;;1.10;99.90;;;;;;4988130;28;20401;-78
2023/01/25 11:52:31;;;;;;;70.50;51.67;;;1.20;99.90;;;;;;5006173;28;20037;-78
2023/01/25 11:55:13;;;;;;;57.70;41.83;;;1.00;99.90;;;;;;5010156;28;20050;-78
2023/01/25 11:57:54;;;;;;;60.03;52.03;;;1.00;99.90;;;;;;4987619;28;20034;-78
2023/01/25 12:00:41;;;;;;;66.55;51.95;;;0.80;99.90;;;;;;5006417;28;20038;-78
2023/01/25 12:03:44;;;;;;;66.18;50.08;;;0.70;99.90;;;;;;5006159;28;20026;-78
2023/01/25 12:06:38;;;;;;;76.20;55.97;;;0.70;99.90;;;;;;5006140;28;20027;-78
2023/01/25 12:09:24;;;;;;;62.60;50.35;;;0.80;99.90;;;;;;5006180;28;20034;-78
2023/01/25 12:12:02;;;;;;;65.78;51.63;;;0.90;99.90;;;;;;5006250;28;20045;-78
2023/01/25 12:14:31;;;;;;;66.78;53.03;;;0.80;99.90;;;;;;5006111;28;20034;-78
2023/01/25 12:17:05;;;;;;;71.93;56.67;;;0.70;99.90;;;;;;5005895;28;20022;-78
2023/01/25 12:19:46;;;;;;;82.50;67.22;;;0.80;99.90;;;;;;5004690;28;20045;-78
2023/01/25 12:22:21;;;;;;;70.97;54.10;;;0.80;99.90;;;;;;5005958;28;20031;-78
2023/01/25 12:25:16;;;;;;;70.63;55.78;;;0.90;99.90;;;;;;5006106;28;20041;-78
2023/01/25 12:28:03;;;;;;;72.93;55.90;;;0.70;99.90;;;;;;5007321;28;20049;-78
2023/01/25 12:30:48;;;;;;;62.35;52.28;;;0.70;99.90;;;;;;5005820;28;20045;-78
2023/01/25 12:33:24;;;;;;;65.85;55.75;;;0.80;99.90;;;;;;5005781;28;20027;-78
2023/01/25 12:36:05;;;;;;;70.07;57.38;;;0.80;99.90;;;;;;5006032;28;20026;-78
2023/01/25 12:38:40;;;;;;;63.38;50.85;;;0.80;99.90;;;;;;5004663;28;20113;-78
2023/01/25 12:41:34;;;;;;;70.53;55.85;;;0.60;99.90;;;;;;5005821;28;20039;-78
2023/01/25 12:44:20;;;;;;;59.72;51.60;;;0.70;99.90;;;;;;5004721;28;20469;-78
2023/01/25 12:46:56;;;;;;;57.58;47.45;;;0.80;99.90;;;;;;5005958;28;20029;-78
2023/01/25 12:49:37;;;;;;;54.95;48.15;;;0.90;99.90;;;;;;5005672;28;20038;-78
2023/01/25 12:52:18;;;;;;;64.53;50.53;;;0.90;99.90;;;;;;5004525;28;20102;-78
2023/01/25 12:54:46;;;;;;;65.05;50.72;;;1.00;99.90;;;;;;5004276;28;20084;-78
2023/01/25 12:57:35;;;;;;;57.17;49.92;;;1.00;99.90;;;;;;5005565;28;20024;-78
2023/01/25 13:00:35;;;;;;;59.75;50.03;;;0.90;99.90;;;;;;5004334;28;20033;-78